sensor_id;sensor_type;location;lat;lon;timestamp;pressure;altitude;pressure_sealevel;temperature;humidity
71465;BME280;59274;49.874;9.154;2023-01-29T00:01:49;101731.75;;;-0.37;77.36
71465;BME280;59274;49.874;9.154;2023-01-29T00:04:22;101714.13;;;-0.43;76.93
71465;BME280;59274;49.874;9.154;2023-01-29T00:07:08;101723.19;;;-0.44;76.88
71465;BME280;59274;49.874;9.154;2023-01-29T00:09:41;101733.59;;;-0.43;77.33
71465;BME280;59274;49.874;9.154;2023-01-29T00:12:11;101732.53;;;-0.47;77.58
71465;BME280;59274;49.874;9.154;2023-01-29T00:14:47;101730.97;;;-0.37;77.11
71465;BME280;59274;49.874;9.154;2023-01-29T00:17:41;101731.47;;;-0.46;77.87
71465;BME280;59274;49.874;9.154;2023-01-29T00:20:09;101723.97;;;-0.49;77.59
71465;BME280;59274;49.874;9.154;2023-01-29T00:22:39;101727.22;;;-0.36;77.66
71465;BME280;59274;49.874;9.154;2023-01-29T00:25:05;101727.50;;;-0.28;78.13
71465;BME280;59274;49.874;9.154;2023-01-29T00:27:35;101712.84;;;-0.20;79.51
71465;BME280;59274;49.874;9.154;2023-01-29T00:30:11;101720.53;;;-0.34;78.43
71465;BME280;59274;49.874;9.154;2023-01-29T00:32:43;101718.16;;;-0.30;78.04
71465;BME280;59274;49.874;9.154;2023-01-29T00:35:11;101724.56;;;-0.31;77.34
71465;BME280;59274;49.874;9.154;2023-01-29T00:37:44;101722.72;;;-0.26;77.52
71465;BME280;59274;49.874;9.154;2023-01-29T00:40:29;101727.78;;;-0.29;77.92
71465;BME280;59274;49.874;9.154;2023-01-29T00:43:21;101731.22;;;-0.34;78.48
71465;BME280;59274;49.874;9.154;2023-01-29T00:46:04;101733.38;;;-0.21;77.03
71465;BME280;59274;49.874;9.154;2023-01-29T00:48:49;101728.31;;;-0.27;76.87
71465;BME280;59274;49.874;9.154;2023-01-29T00:51:16;101732.00;;;-0.38;76.62
71465;BME280;59274;49.874;9.154;2023-01-29T00:53:49;101735.25;;;-0.31;76.39
71465;BME280;59274;49.874;9.154;2023-01-29T00:56:42;101735.75;;;-0.40;76.88
71465;BME280;59274;49.874;9.154;2023-01-29T00:59:23;101732.00;;;-0.44;77.24
71465;BME280;59274;49.874;9.154;2023-01-29T01:01:57;101733.09;;;-0.34;77.13
71465;BME280;59274;49.874;9.154;2023-01-29T01:04:46;101736.03;;;-0.36;77.61
71465;BME280;59274;49.874;9.154;2023-01-29T01:07:21;101735.50;;;-0.38;77.73
71465;BME280;59274;49.874;9.154;2023-01-29T01:10:21;101727.47;;;-0.43;77.52
71465;BME280;59274;49.874;9.154;2023-01-29T01:15:35;101722.66;;;-0.46;77.07
71465;BME280;59274;49.874;9.154;2023-01-29T01:18:24;101718.13;;;-0.46;77.16
71465;BME280;59274;49.874;9.154;2023-01-29T01:20:57;101705.31;;;-0.44;76.47
71465;BME280;59274;49.874;9.154;2023-01-29T01:23:36;101716.25;;;-0.45;76.23
71465;BME280;59274;49.874;9.154;2023-01-29T01:26:12;101709.81;;;-0.49;76.19
71465;BME280;59274;49.874;9.154;2023-01-29T01:29:12;101713.59;;;-0.45;75.97
71465;BME280;59274;49.874;9.154;2023-01-29T01:31:45;101713.53;;;-0.55;75.93
71465;BME280;59274;49.874;9.154;2023-01-29T01:34:23;101713.22;;;-0.64;76.43
71465;BME280;59274;49.874;9.154;2023-01-29T01:36:54;101713.03;;;-0.57;76.31
71465;BME280;59274;49.874;9.154;2023-01-29T01:39:34;101709.81;;;-0.54;75.52
71465;BME280;59274;49.874;9.154;2023-01-29T01:42:13;101714.59;;;-0.61;76.19
71465;BME280;59274;49.874;9.154;2023-01-29T01:44:53;101718.06;;;-0.56;76.39
71465;BME280;59274;49.874;9.154;2023-01-29T01:47:39;101706.31;;;-0.60;75.88
71465;BME280;59274;49.874;9.154;2023-01-29T01:50:42;101708.75;;;-0.48;76.39
71465;BME280;59274;49.874;9.154;2023-01-29T01:53:15;101708.00;;;-0.38;76.25
71465;BME280;59274;49.874;9.154;2023-01-29T01:55:52;101697.59;;;-0.40;75.50
71465;BME280;59274;49.874;9.154;2023-01-29T01:58:33;101698.38;;;-0.40;75.97
71465;BME280;59274;49.874;9.154;2023-01-29T02:01:08;101695.72;;;-0.40;74.97
71465;BME280;59274;49.874;9.154;2023-01-29T02:04:00;101689.81;;;-0.47;76.21
71465;BME280;59274;49.874;9.154;2023-01-29T02:06:55;101697.88;;;-0.36;75.12
71465;BME280;59274;49.874;9.154;2023-01-29T02:09:49;101689.56;;;-0.45;75.63
71465;BME280;59274;49.874;9.154;2023-01-29T02:12:20;101682.63;;;-0.46;74.37
71465;BME280;59274;49.874;9.154;2023-01-29T02:14:55;101681.81;;;-0.47;74.92
71465;BME280;59274;49.874;9.154;2023-01-29T02:17:26;101675.97;;;-0.44;75.23
71465;BME280;59274;49.874;9.154;2023-01-29T02:31:41;101665.75;;;-0.72;78.75
71465;BME280;59274;49.874;9.154;2023-01-29T02:34:27;101663.59;;;-0.75;79.23
71465;BME280;59274;49.874;9.154;2023-01-29T02:37:15;101666.00;;;-0.73;78.65
71465;BME280;59274;49.874;9.154;2023-01-29T02:40:08;101659.88;;;-0.74;79.67
71465;BME280;59274;49.874;9.154;2023-01-29T02:42:55;101662.75;;;-0.86;80.21
71465;BME280;59274;49.874;9.154;2023-01-29T02:45:47;101671.03;;;-0.82;80.50
71465;BME280;59274;49.874;9.154;2023-01-29T02:48:33;101676.34;;;-0.87;79.81
71465;BME280;59274;49.874;9.154;2023-01-29T02:51:19;101679.59;;;-0.80;79.32
71465;BME280;59274;49.874;9.154;2023-01-29T02:56:50;101669.97;;;-0.81;79.21
71465;BME280;59274;49.874;9.154;2023-01-29T02:59:47;101669.91;;;-0.96;79.16
71465;BME280;59274;49.874;9.154;2023-01-29T03:02:29;101675.22;;;-1.01;79.31
71465;BME280;59274;49.874;9.154;2023-01-29T03:05:03;101682.44;;;-0.92;79.55
71465;BME280;59274;49.874;9.154;2023-01-29T03:07:46;101685.09;;;-0.97;79.80
71465;BME280;59274;49.874;9.154;2023-01-29T03:10:29;101701.63;;;-1.00;80.67
71465;BME280;59274;49.874;9.154;2023-01-29T03:13:29;101702.13;;;-1.03;81.21
71465;BME280;59274;49.874;9.154;2023-01-29T03:16:10;101699.22;;;-0.96;80.46
71465;BME280;59274;49.874;9.154;2023-01-29T03:18:56;101709.31;;;-1.03;80.42
71465;BME280;59274;49.874;9.154;2023-01-29T03:21:37;101713.28;;;-1.11;80.61
71465;BME280;59274;49.874;9.154;2023-01-29T03:31:14;101716.28;;;-0.97;82.25
71465;BME280;59274;49.874;9.154;2023-01-29T03:37:31;101704.31;;;-0.95;83.11
71465;BME280;59274;49.874;9.154;2023-01-29T03:40:08;101696.56;;;-0.91;81.76
71465;BME280;59274;49.874;9.154;2023-01-29T03:45:41;101709.63;;;-0.95;81.97
71465;BME280;59274;49.874;9.154;2023-01-29T03:48:53;101711.50;;;-0.95;81.14
71465;BME280;59274;49.874;9.154;2023-01-29T03:59:34;101729.59;;;-1.02;78.19
71465;BME280;59274;49.874;9.154;2023-01-29T04:02:12;101728.00;;;-0.98;78.23
71465;BME280;59274;49.874;9.154;2023-01-29T04:04:49;101710.75;;;-0.86;79.15
71465;BME280;59274;49.874;9.154;2023-01-29T04:07:26;101711.03;;;-0.82;78.45
71465;BME280;59274;49.874;9.154;2023-01-29T04:10:07;101696.34;;;-0.85;79.23
71465;BME280;59274;49.874;9.154;2023-01-29T04:12:51;101692.31;;;-0.92;79.50
71465;BME280;59274;49.874;9.154;2023-01-29T04:15:33;101694.72;;;-0.91;79.58
71465;BME280;59274;49.874;9.154;2023-01-29T04:18:20;101689.06;;;-1.04;79.73
71465;BME280;59274;49.874;9.154;2023-01-29T04:20:55;101702.16;;;-0.98;79.84
71465;BME280;59274;49.874;9.154;2023-01-29T04:23:26;101711.75;;;-0.97;78.56
71465;BME280;59274;49.874;9.154;2023-01-29T04:29:08;101690.69;;;-0.98;80.49
71465;BME280;59274;49.874;9.154;2023-01-29T04:34:36;101698.06;;;-1.15;81.19
71465;BME280;59274;49.874;9.154;2023-01-29T04:49:12;101648.88;;;-1.40;86.89
71465;BME280;59274;49.874;9.154;2023-01-29T04:51:54;101658.91;;;-1.57;87.90
71465;BME280;59274;49.874;9.154;2023-01-29T05:00:21;101654.44;;;-1.83;89.95
71465;BME280;59274;49.874;9.154;2023-01-29T05:02:55;101664.00;;;-1.87;89.60
71465;BME280;59274;49.874;9.154;2023-01-29T05:05:21;101659.16;;;-1.90;89.08
71465;BME280;59274;49.874;9.154;2023-01-29T05:07:49;101664.78;;;-1.87;88.88
71465;BME280;59274;49.874;9.154;2023-01-29T05:10:34;101664.78;;;-1.87;88.85
71465;BME280;59274;49.874;9.154;2023-01-29T05:16:13;101675.50;;;-1.77;87.60
71465;BME280;59274;49.874;9.154;2023-01-29T05:18:52;101695.03;;;-1.66;86.35
71465;BME280;59274;49.874;9.154;2023-01-29T05:21:29;101700.66;;;-1.63;85.27
71465;BME280;59274;49.874;9.154;2023-01-29T05:24:20;101700.41;;;-1.61;84.83
71465;BME280;59274;49.874;9.154;2023-01-29T05:26:52;101702.09;;;-1.50;84.15
71465;BME280;59274;49.874;9.154;2023-01-29T05:29:39;101702.84;;;-1.54;83.99
71465;BME280;59274;49.874;9.154;2023-01-29T05:32:09;101694.63;;;-1.48;84.17
71465;BME280;59274;49.874;9.154;2023-01-29T05:34:44;101693.91;;;-1.38;84.86
71465;BME280;59274;49.874;9.154;2023-01-29T05:37:29;101685.91;;;-1.38;84.99
71465;BME280;59274;49.874;9.154;2023-01-29T05:40:14;101678.50;;;-1.31;85.15
71465;BME280;59274;49.874;9.154;2023-01-29T05:42:47;101674.47;;;-1.39;86.40
71465;BME280;59274;49.874;9.154;2023-01-29T05:48:14;101675.97;;;-1.53;86.56
71465;BME280;59274;49.874;9.154;2023-01-29T05:50:42;101680.34;;;-1.37;86.52
71465;BME280;59274;49.874;9.154;2023-01-29T05:53:16;101678.97;;;-1.44;86.53
71465;BME280;59274;49.874;9.154;2023-01-29T05:55:48;101676.34;;;-1.34;86.04
71465;BME280;59274;49.874;9.154;2023-01-29T05:58:18;101689.13;;;-1.36;85.95
71465;BME280;59274;49.874;9.154;2023-01-29T06:00:48;101689.63;;;-1.44;86.66
71465;BME280;59274;49.874;9.154;2023-01-29T06:03:17;101694.19;;;-1.35;85.91
71465;BME280;59274;49.874;9.154;2023-01-29T06:05:43;101687.28;;;-1.36;86.26
71465;BME280;59274;49.874;9.154;2023-01-29T06:08:09;101693.69;;;-1.32;87.45
71465;BME280;59274;49.874;9.154;2023-01-29T06:10:42;101692.63;;;-1.31;87.20
71465;BME280;59274;49.874;9.154;2023-01-29T06:13:12;101692.63;;;-1.36;87.72
71465;BME280;59274;49.874;9.154;2023-01-29T06:15:46;101692.38;;;-1.29;86.91
71465;BME280;59274;49.874;9.154;2023-01-29T06:18:16;101681.38;;;-1.43;86.63
71465;BME280;59274;49.874;9.154;2023-01-29T06:20:50;101690.69;;;-1.40;87.11
71465;BME280;59274;49.874;9.154;2023-01-29T06:23:19;101691.50;;;-1.40;87.54
71465;BME280;59274;49.874;9.154;2023-01-29T06:25:49;101679.19;;;-1.51;87.94
71465;BME280;59274;49.874;9.154;2023-01-29T06:28:15;101678.28;;;-1.62;87.17
71465;BME280;59274;49.874;9.154;2023-01-29T06:33:50;101672.97;;;-1.62;88.40
71465;BME280;59274;49.874;9.154;2023-01-29T06:36:28;101670.38;;;-1.56;88.50
71465;BME280;59274;49.874;9.154;2023-01-29T06:39:09;101669.56;;;-1.57;89.43
71465;BME280;59274;49.874;9.154;2023-01-29T06:41:54;101681.78;;;-1.56;89.46
71465;BME280;59274;49.874;9.154;2023-01-29T06:44:22;101679.66;;;-1.59;90.06
71465;BME280;59274;49.874;9.154;2023-01-29T06:46:55;101679.41;;;-1.58;91.77
71465;BME280;59274;49.874;9.154;2023-01-29T06:49:23;101674.06;;;-1.58;90.78
71465;BME280;59274;49.874;9.154;2023-01-29T06:51:54;101677.53;;;-1.57;91.32
71465;BME280;59274;49.874;9.154;2023-01-29T06:54:31;101670.38;;;-1.51;90.93
71465;BME280;59274;49.874;9.154;2023-01-29T06:56:59;101680.16;;;-1.62;91.47
71465;BME280;59274;49.874;9.154;2023-01-29T06:59:27;101682.91;;;-1.52;91.02
71465;BME280;59274;49.874;9.154;2023-01-29T07:02:02;101685.34;;;-1.45;89.30
71465;BME280;59274;49.874;9.154;2023-01-29T07:04:27;101686.13;;;-1.50;89.59
71465;BME280;59274;49.874;9.154;2023-01-29T07:07:01;101686.69;;;-1.43;88.10
71465;BME280;59274;49.874;9.154;2023-01-29T07:09:43;101684.09;;;-1.28;87.67
71465;BME280;59274;49.874;9.154;2023-01-29T07:12:17;101679.53;;;-1.37;88.22
71465;BME280;59274;49.874;9.154;2023-01-29T07:14:53;101675.25;;;-1.43;88.70
71465;BME280;59274;49.874;9.154;2023-01-29T07:17:28;101693.84;;;-1.48;89.60
71465;BME280;59274;49.874;9.154;2023-01-29T07:20:01;101706.03;;;-1.58;90.06
71465;BME280;59274;49.874;9.154;2023-01-29T07:22:47;101709.31;;;-1.45;88.84
71465;BME280;59274;49.874;9.154;2023-01-29T07:25:24;101709.28;;;-1.50;89.22
71465;BME280;59274;49.874;9.154;2023-01-29T07:27:55;101710.63;;;-1.48;88.21
71465;BME280;59274;49.874;9.154;2023-01-29T07:30:30;101710.38;;;-1.46;88.90
71465;BME280;59274;49.874;9.154;2023-01-29T07:33:07;101708.00;;;-1.43;89.27
71465;BME280;59274;49.874;9.154;2023-01-29T07:35:42;101705.19;;;-1.26;88.77
71465;BME280;59274;49.874;9.154;2023-01-29T07:38:19;101705.41;;;-1.33;87.00
71465;BME280;59274;49.874;9.154;2023-01-29T07:40:54;101712.91;;;-1.30;86.19
71465;BME280;59274;49.874;9.154;2023-01-29T07:43:24;101706.56;;;-1.19;84.31
71465;BME280;59274;49.874;9.154;2023-01-29T07:45:55;101704.44;;;-1.22;85.01
71465;BME280;59274;49.874;9.154;2023-01-29T07:48:25;101707.91;;;-1.21;85.20
71465;BME280;59274;49.874;9.154;2023-01-29T07:50:56;101714.28;;;-1.22;86.11
71465;BME280;59274;49.874;9.154;2023-01-29T07:53:24;101706.81;;;-1.20;87.21
71465;BME280;59274;49.874;9.154;2023-01-29T07:56:04;101710.34;;;-1.09;86.23
71465;BME280;59274;49.874;9.154;2023-01-29T07:58:39;101701.88;;;-1.01;85.67
71465;BME280;59274;49.874;9.154;2023-01-29T08:01:19;101700.31;;;-0.92;86.66
71465;BME280;59274;49.874;9.154;2023-01-29T08:03:49;101697.63;;;-0.97;86.00
71465;BME280;59274;49.874;9.154;2023-01-29T08:06:17;101709.09;;;-0.92;86.40
71465;BME280;59274;49.874;9.154;2023-01-29T08:08:47;101697.75;;;-0.72;86.07
71465;BME280;59274;49.874;9.154;2023-01-29T08:11:16;101701.53;;;-0.58;85.82
71465;BME280;59274;49.874;9.154;2023-01-29T08:13:44;101706.84;;;-0.63;84.26
71465;BME280;59274;49.874;9.154;2023-01-29T08:16:14;101716.75;;;-0.53;80.06
71465;BME280;59274;49.874;9.154;2023-01-29T08:18:39;101715.44;;;-0.46;80.35
71465;BME280;59274;49.874;9.154;2023-01-29T08:21:10;101714.41;;;-0.34;79.42
71465;BME280;59274;49.874;9.154;2023-01-29T08:23:49;101716.25;;;-0.45;78.67
71465;BME280;59274;49.874;9.154;2023-01-29T08:26:17;101721.28;;;-0.54;78.30
71465;BME280;59274;49.874;9.154;2023-01-29T08:28:55;101722.97;;;-0.32;78.81
71465;BME280;59274;49.874;9.154;2023-01-29T08:31:22;101731.22;;;-0.34;77.78
71465;BME280;59274;49.874;9.154;2023-01-29T08:33:52;101742.44;;;-0.27;76.73
71465;BME280;59274;49.874;9.154;2023-01-29T08:36:21;101747.03;;;-0.22;76.02
71465;BME280;59274;49.874;9.154;2023-01-29T08:38:48;101733.69;;;-0.22;75.21
71465;BME280;59274;49.874;9.154;2023-01-29T08:41:21;101719.72;;;-0.45;76.63
71465;BME280;59274;49.874;9.154;2023-01-29T08:46:33;101698.44;;;-0.24;75.56
71465;BME280;59274;49.874;9.154;2023-01-29T08:49:09;101685.09;;;-0.29;77.23
71465;BME280;59274;49.874;9.154;2023-01-29T08:51:34;101673.91;;;-0.01;76.11
71465;BME280;59274;49.874;9.154;2023-01-29T08:54:28;101676.03;;;0.22;75.91
71465;BME280;59274;49.874;9.154;2023-01-29T08:59:58;101688.03;;;0.70;72.37
71465;BME280;59274;49.874;9.154;2023-01-29T09:02:53;101683.75;;;0.64;72.09
71465;BME280;59274;49.874;9.154;2023-01-29T09:05:30;101688.06;;;0.45;73.04
71465;BME280;59274;49.874;9.154;2023-01-29T09:07:59;101699.00;;;0.44;72.08
71465;BME280;59274;49.874;9.154;2023-01-29T09:10:32;101705.97;;;0.34;71.19
71465;BME280;59274;49.874;9.154;2023-01-29T09:13:12;101700.38;;;0.41;71.42
71465;BME280;59274;49.874;9.154;2023-01-29T09:15:42;101703.81;;;0.52;71.33
71465;BME280;59274;49.874;9.154;2023-01-29T09:18:20;101714.25;;;0.63;70.04
71465;BME280;59274;49.874;9.154;2023-01-29T09:20:52;101714.25;;;0.53;70.37
71465;BME280;59274;49.874;9.154;2023-01-29T09:23:17;101715.03;;;0.44;70.60
71465;BME280;59274;49.874;9.154;2023-01-29T09:25:45;101725.22;;;0.62;69.90
71465;BME280;59274;49.874;9.154;2023-01-29T09:28:21;101726.28;;;0.61;71.76
71465;BME280;59274;49.874;9.154;2023-01-29T09:30:59;101731.34;;;0.47;70.76
71465;BME280;59274;49.874;9.154;2023-01-29T09:33:34;101742.84;;;0.37;71.48
71465;BME280;59274;49.874;9.154;2023-01-29T09:36:08;101751.66;;;0.48;70.89
71465;BME280;59274;49.874;9.154;2023-01-29T09:38:33;101744.44;;;0.44;70.87
71465;BME280;59274;49.874;9.154;2023-01-29T09:47:03;101780.97;;;0.03;73.10
71465;BME280;59274;49.874;9.154;2023-01-29T09:49:40;101784.19;;;-0.01;73.60
71465;BME280;59274;49.874;9.154;2023-01-29T09:52:19;101775.91;;;0.01;73.81
71465;BME280;59274;49.874;9.154;2023-01-29T09:57:46;101762.56;;;0.06;73.04
71465;BME280;59274;49.874;9.154;2023-01-29T10:00:26;101764.47;;;0.21;72.74
71465;BME280;59274;49.874;9.154;2023-01-29T10:05:58;101766.84;;;0.12;73.16
71465;BME280;59274;49.874;9.154;2023-01-29T10:08:55;101752.69;;;0.12;73.23
71465;BME280;59274;49.874;9.154;2023-01-29T10:21:13;101718.50;;;0.09;73.05
71465;BME280;59274;49.874;9.154;2023-01-29T10:27:00;101719.88;;;0.47;72.58
71465;BME280;59274;49.874;9.154;2023-01-29T10:29:28;101714.53;;;0.47;72.62
71465;BME280;59274;49.874;9.154;2023-01-29T10:32:04;101702.47;;;0.74;72.63
71465;BME280;59274;49.874;9.154;2023-01-29T10:35:47;101691.25;;;0.67;70.88
71465;BME280;59274;49.874;9.154;2023-01-29T10:37:44;101699.00;;;0.54;72.03
71465;BME280;59274;49.874;9.154;2023-01-29T10:40:47;101687.28;;;0.50;71.40
71465;BME280;59274;49.874;9.154;2023-01-29T10:47:11;101674.03;;;1.09;70.41
71465;BME280;59274;49.874;9.154;2023-01-29T11:00:46;101652.66;;;1.58;67.88
71465;BME280;59274;49.874;9.154;2023-01-29T11:03:29;101653.47;;;1.92;68.05
71465;BME280;59274;49.874;9.154;2023-01-29T11:06:34;101645.97;;;1.94;68.66
71465;BME280;59274;49.874;9.154;2023-01-29T11:09:33;101641.53;;;1.80;68.58
71465;BME280;59274;49.874;9.154;2023-01-29T11:12:17;101643.88;;;1.86;66.77
71465;BME280;59274;49.874;9.154;2023-01-29T11:15:19;101632.38;;;1.86;67.94
71465;BME280;59274;49.874;9.154;2023-01-29T11:18:20;101617.78;;;2.02;65.89
71465;BME280;59274;49.874;9.154;2023-01-29T11:21:03;101609.72;;;2.07;66.90
71465;BME280;59274;49.874;9.154;2023-01-29T11:23:41;101606.81;;;2.04;65.84
71465;BME280;59274;49.874;9.154;2023-01-29T11:26:17;101610.59;;;1.98;68.96
71465;BME280;59274;49.874;9.154;2023-01-29T11:28:56;101598.25;;;2.02;66.76
71465;BME280;59274;49.874;9.154;2023-01-29T11:31:46;101597.81;;;1.89;65.58
71465;BME280;59274;49.874;9.154;2023-01-29T11:34:25;101586.50;;;1.98;67.08
71465;BME280;59274;49.874;9.154;2023-01-29T11:37:16;101584.09;;;1.96;67.11
71465;BME280;59274;49.874;9.154;2023-01-29T11:39:48;101577.41;;;1.93;65.98
71465;BME280;59274;49.874;9.154;2023-01-29T11:42:27;101575.75;;;1.64;67.63
71465;BME280;59274;49.874;9.154;2023-01-29T11:45:10;101568.53;;;1.69;67.88
71465;BME280;59274;49.874;9.154;2023-01-29T11:48:21;101557.81;;;1.30;69.22
71465;BME280;59274;49.874;9.154;2023-01-29T11:50:52;101553.91;;;1.51;69.45
71465;BME280;59274;49.874;9.154;2023-01-29T11:53:26;101556.25;;;1.63;67.86
71465;BME280;59274;49.874;9.154;2023-01-29T11:56:12;101547.44;;;1.91;68.49
71465;BME280;59274;49.874;9.154;2023-01-29T11:58:43;101536.28;;;1.79;67.20
71465;BME280;59274;49.874;9.154;2023-01-29T12:01:31;101534.78;;;2.26;67.38
71465;BME280;59274;49.874;9.154;2023-01-29T12:04:03;101544.03;;;2.39;65.81
71465;BME280;59274;49.874;9.154;2023-01-29T12:06:46;101533.97;;;2.49;65.58
71465;BME280;59274;49.874;9.154;2023-01-29T12:09:32;101540.38;;;2.53;65.51
71465;BME280;59274;49.874;9.154;2023-01-29T12:12:41;101539.91;;;2.46;67.10
71465;BME280;59274;49.874;9.154;2023-01-29T12:15:21;101538.97;;;2.08;65.92
71465;BME280;59274;49.874;9.154;2023-01-29T12:20:40;101537.16;;;2.04;66.45
71465;BME280;59274;49.874;9.154;2023-01-29T12:26:08;101524.22;;;2.34;67.52
71465;BME280;59274;49.874;9.154;2023-01-29T12:31:40;101506.91;;;2.27;66.70
71465;BME280;59274;49.874;9.154;2023-01-29T12:34:36;101501.19;;;2.33;65.46
71465;BME280;59274;49.874;9.154;2023-01-29T12:37:37;101498.56;;;2.52;66.51
71465;BME280;59274;49.874;9.154;2023-01-29T12:40:36;101487.19;;;2.60;66.46
71465;BME280;59274;49.874;9.154;2023-01-29T12:43:23;101496.59;;;2.58;63.44
71465;BME280;59274;49.874;9.154;2023-01-29T12:45:55;101502.91;;;2.48;63.69
71465;BME280;59274;49.874;9.154;2023-01-29T12:48:32;101496.28;;;2.17;65.30
71465;BME280;59274;49.874;9.154;2023-01-29T12:51:08;101497.75;;;2.28;64.85
71465;BME280;59274;49.874;9.154;2023-01-29T12:56:46;101484.97;;;2.44;64.77
71465;BME280;59274;49.874;9.154;2023-01-29T12:59:30;101475.50;;;2.51;64.55
71465;BME280;59274;49.874;9.154;2023-01-29T13:02:29;101474.47;;;2.90;62.99
71465;BME280;59274;49.874;9.154;2023-01-29T13:08:07;101460.34;;;3.35;64.51
71465;BME280;59274;49.874;9.154;2023-01-29T13:10:37;101460.06;;;3.37;63.04
71465;BME280;59274;49.874;9.154;2023-01-29T13:13:29;101453.50;;;3.43;62.56
71465;BME280;59274;49.874;9.154;2023-01-29T13:15:56;101450.81;;;3.43;63.33
71465;BME280;59274;49.874;9.154;2023-01-29T13:18:35;101445.69;;;3.28;63.49
71465;BME280;59274;49.874;9.154;2023-01-29T13:21:03;101437.28;;;2.83;64.22
71465;BME280;59274;49.874;9.154;2023-01-29T13:23:48;101436.16;;;2.65;63.66
71465;BME280;59274;49.874;9.154;2023-01-29T13:26:21;101431.47;;;2.76;63.52
71465;BME280;59274;49.874;9.154;2023-01-29T13:28:54;101432.69;;;2.65;63.67
71465;BME280;59274;49.874;9.154;2023-01-29T13:31:26;101434.94;;;2.58;64.07
71465;BME280;59274;49.874;9.154;2023-01-29T13:34:12;101417.03;;;2.53;63.86
71465;BME280;59274;49.874;9.154;2023-01-29T13:36:46;101408.41;;;2.38;65.10
71465;BME280;59274;49.874;9.154;2023-01-29T13:39:34;101412.75;;;2.52;64.78
71465;BME280;59274;49.874;9.154;2023-01-29T13:42:42;101410.78;;;2.39;65.25
71465;BME280;59274;49.874;9.154;2023-01-29T13:45:22;101413.56;;;2.53;64.62
71465;BME280;59274;49.874;9.154;2023-01-29T13:47:52;101417.88;;;2.49;64.35
71465;BME280;59274;49.874;9.154;2023-01-29T13:50:48;101405.88;;;2.65;63.84
71465;BME280;59274;49.874;9.154;2023-01-29T13:53:34;101413.56;;;2.34;65.12
71465;BME280;59274;49.874;9.154;2023-01-29T14:02:27;101413.88;;;2.70;63.90
71465;BME280;59274;49.874;9.154;2023-01-29T14:05:35;101403.72;;;2.67;64.25
71465;BME280;59274;49.874;9.154;2023-01-29T14:10:42;101411.28;;;3.16;64.16
71465;BME280;59274;49.874;9.154;2023-01-29T14:21:32;101397.28;;;3.19;62.80
71465;BME280;59274;49.874;9.154;2023-01-29T14:24:37;101397.09;;;3.29;61.39
71465;BME280;59274;49.874;9.154;2023-01-29T14:27:19;101393.91;;;3.27;61.21
71465;BME280;59274;49.874;9.154;2023-01-29T14:29:59;101390.06;;;3.33;61.40
71465;BME280;59274;49.874;9.154;2023-01-29T14:32:27;101390.06;;;3.33;60.93
71465;BME280;59274;49.874;9.154;2023-01-29T14:35:00;101384.50;;;3.57;60.24
71465;BME280;59274;49.874;9.154;2023-01-29T14:37:37;101377.13;;;3.03;62.57
71465;BME280;59274;49.874;9.154;2023-01-29T14:40:30;101375.25;;;3.03;63.63
71465;BME280;59274;49.874;9.154;2023-01-29T14:43:22;101369.84;;;3.22;61.55
71465;BME280;59274;49.874;9.154;2023-01-29T14:46:39;101368.66;;;3.28;61.59
71465;BME280;59274;49.874;9.154;2023-01-29T14:48:47;101375.75;;;3.38;61.00
71465;BME280;59274;49.874;9.154;2023-01-29T14:51:34;101384.19;;;3.31;60.93
71465;BME280;59274;49.874;9.154;2023-01-29T14:54:05;101373.19;;;3.46;60.60
71465;BME280;59274;49.874;9.154;2023-01-29T14:57:00;101371.00;;;3.62;59.76
71465;BME280;59274;49.874;9.154;2023-01-29T15:00:04;101374.97;;;3.65;59.87
71465;BME280;59274;49.874;9.154;2023-01-29T15:02:38;101373.78;;;3.57;60.36
71465;BME280;59274;49.874;9.154;2023-01-29T15:05:19;101371.97;;;3.52;59.99
71465;BME280;59274;49.874;9.154;2023-01-29T15:08:14;101360.53;;;3.33;60.45
71465;BME280;59274;49.874;9.154;2023-01-29T15:10:55;101358.25;;;3.40;61.05
71465;BME280;59274;49.874;9.154;2023-01-29T15:13:49;101366.38;;;3.35;61.56
71465;BME280;59274;49.874;9.154;2023-01-29T15:16:44;101366.34;;;3.22;61.06
71465;BME280;59274;49.874;9.154;2023-01-29T15:19:42;101358.50;;;3.11;62.06
71465;BME280;59274;49.874;9.154;2023-01-29T15:22:33;101362.88;;;2.89;62.43
71465;BME280;59274;49.874;9.154;2023-01-29T15:25:14;101357.22;;;2.90;63.39
71465;BME280;59274;49.874;9.154;2023-01-29T15:28:19;101360.22;;;2.70;63.20
71465;BME280;59274;49.874;9.154;2023-01-29T15:31:00;101359.19;;;2.28;65.63
71465;BME280;59274;49.874;9.154;2023-01-29T15:33:44;101357.38;;;2.05;67.72
71465;BME280;59274;49.874;9.154;2023-01-29T15:36:20;101355.00;;;1.80;68.71
71465;BME280;59274;49.874;9.154;2023-01-29T15:39:21;101352.00;;;1.63;69.61
71465;BME280;59274;49.874;9.154;2023-01-29T15:42:09;101353.28;;;1.41;68.88
71465;BME280;59274;49.874;9.154;2023-01-29T15:44:43;101347.75;;;1.33;69.91
71465;BME280;59274;49.874;9.154;2023-01-29T15:47:22;101352.50;;;1.36;69.64
71465;BME280;59274;49.874;9.154;2023-01-29T15:49:51;101351.91;;;1.15;71.12
71465;BME280;59274;49.874;9.154;2023-01-29T15:52:24;101349.53;;;1.13;70.55
71465;BME280;59274;49.874;9.154;2023-01-29T15:55:03;101346.94;;;1.03;72.05
71465;BME280;59274;49.874;9.154;2023-01-29T15:57:47;101344.59;;;0.97;71.79
71465;BME280;59274;49.874;9.154;2023-01-29T16:00:24;101340.09;;;0.92;71.93
71465;BME280;59274;49.874;9.154;2023-01-29T16:03:15;101341.50;;;0.79;72.70
71465;BME280;59274;49.874;9.154;2023-01-29T16:06:08;101342.28;;;0.85;73.79
71465;BME280;59274;49.874;9.154;2023-01-29T16:08:34;101343.69;;;0.72;73.75
71465;BME280;59274;49.874;9.154;2023-01-29T16:11:06;101335.69;;;0.33;76.10
71465;BME280;59274;49.874;9.154;2023-01-29T16:13:40;101330.44;;;0.18;77.04
71465;BME280;59274;49.874;9.154;2023-01-29T16:16:43;101323.03;;;0.05;76.14
71465;BME280;59274;49.874;9.154;2023-01-29T16:19:28;101325.44;;;0.07;75.11
71465;BME280;59274;49.874;9.154;2023-01-29T16:22:03;101327.03;;;0.03;76.12
71465;BME280;59274;49.874;9.154;2023-01-29T16:24:42;101320.91;;;0.07;76.11
71465;BME280;59274;49.874;9.154;2023-01-29T16:27:12;101324.06;;;0.14;75.88